Jacksonville, AR

6:03 AM CDT on September 03, 2015 (GMT -0500)
Little Rock Air Force Base | | Change Station
CLOSE
Current Station
Airport
Location: Little Rock AFB,
Elevation: 312 ft
Nearby Weather Stations

Elev 312 ft 34.92 °N, 92.15 °W | Updated 5 minutes ago

Clear
Clear
67 °F
Feels Like 67 °F
N
0
Wind Variable Wind from North

Today
High -- | Low -- °F
--% Chance of Precip.
Yesterday
High -- | Low -- °F
Precip. -- in
6:42 AM 7:32 PM
Waning Gibbous, 71% visible
Pressure 30.00 in
Visibility 10.0 miles
Clouds Clear
Dew Point 67 °F
Humidity 99%
Rainfall 0.00 in
Snow Depth Not available.
UV 0 out of 12
Pollen 9.80 out of 12
Air Quality Not available.
Flu Activity Not available.
METAR KLRF 031058Z AUTO 00000KT 10SM CLR 20/20 A3000 RMK AO2 VIS 1 3/4 RWY07 SLP159 T01960195
Pressure 30.00 in
Visibility 10.0 miles
Clouds Clear
Dew Point 67 °F
Humidity 99%
Rainfall 0.00 in
Snow Depth Not available.
UV 0 out of 12
Pollen 9.80 out of 12
Air Quality Not available.
Flu Activity Not available.
METAR KLRF 031058Z AUTO 00000KT 10SM CLR 20/20 A3000 RMK AO2 VIS 1 3/4 RWY07 SLP159 T01960195

10-Day Weather Forecast

×

Almanac

Astronomy

Sep. 03, 2015 Rise Set
Actual Time
Civil Twilight
Nautical Twilight
Astronomical Twilight
Moon
Length of Visible Light
Length of Day
Tomorrow will be .
, % of the Moon is Illuminated

Today's Extremes

State Highs State Lows

Community

WunderPhotos

Upload Photos

1,851,933 photos uploaded!

WunderBlogs® & News

Nearby

Air Quality

  Air Quality AQ Index Pollutant
Not available.

Snow Depth

Station Depth Elevation

Earthquake Activity

City Distance Mag. Time & Date
Minimum magnitude displayed is 2.5.

Coastal Water Temperatures

Place Temperature

Stations

Nearby Weather Stations

Station Location Temp. Windchill Dew Point Humidity Wind Precip. Elev Updated Type